Time;durP1;ratioP1;P1;durP2;ratioP2;P2;SDS_P1;SDS_P2;PMS_P1;PMS_P2;Temp;Humidity;BMP_temperature;BMP_pressure;BME280_temperature;BME280_humidity;BME280_pressure;Samples;Min_cycle;Max_cycle;Signal;HPM_P1;HPM_P2
2022/01/22 00:01:46;;;;;;;22.13;10.13;;;4.10;99.90;;;;;;5062566;28;20956;-72
2022/01/22 00:04:13;;;;;;;15.07;10.17;;;4.10;99.90;;;;;;5068746;28;20834;-72
2022/01/22 00:06:40;;;;;;;15.90;9.80;;;4.10;99.90;;;;;;5053408;28;20448;-73
2022/01/22 00:09:07;;;;;;;13.53;10.00;;;4.10;99.90;;;;;;5053182;28;20480;-72
2022/01/22 00:11:39;;;;;;;17.90;11.00;;;4.10;99.90;;;;;;5064677;28;20448;-73
2022/01/22 00:14:24;;;;;;;16.43;10.20;;;4.10;99.90;;;;;;5066287;28;20464;-73
2022/01/22 00:16:52;;;;;;;19.63;10.30;;;4.10;99.90;;;;;;5070136;28;20443;-73
2022/01/22 00:19:19;;;;;;;17.07;10.57;;;4.10;99.90;;;;;;5061003;28;20464;-72
2022/01/22 00:21:45;;;;;;;14.30;9.90;;;4.10;99.90;;;;;;5062471;28;21010;-72
2022/01/22 00:24:13;;;;;;;13.00;10.00;;;4.10;99.90;;;;;;5064832;28;20527;-73
2022/01/22 00:26:41;;;;;;;16.00;9.53;;;4.20;99.90;;;;;;5072321;28;20536;-73
2022/01/22 00:29:10;;;;;;;15.60;9.80;;;4.20;99.90;;;;;;5067863;28;20899;-73
2022/01/22 00:31:36;;;;;;;17.07;9.90;;;4.20;99.90;;;;;;5067061;28;20463;-73
2022/01/22 00:34:03;;;;;;;19.40;9.20;;;4.10;99.90;;;;;;5064081;28;20475;-72
2022/01/22 00:36:30;;;;;;;22.10;10.20;;;4.10;99.90;;;;;;5067551;28;20460;-72
2022/01/22 00:38:57;;;;;;;13.97;8.90;;;4.20;99.90;;;;;;5071937;28;20475;-73
2022/01/22 00:41:23;;;;;;;17.00;8.80;;;4.10;99.90;;;;;;5071966;28;20477;-72
2022/01/22 00:43:53;;;;;;;12.10;7.87;;;4.10;99.90;;;;;;5052809;28;20441;-72
2022/01/22 00:46:20;;;;;;;13.50;7.90;;;4.10;99.90;;;;;;5060579;28;20466;-73
2022/01/22 00:48:47;;;;;;;9.80;7.23;;;4.10;99.90;;;;;;5071450;28;20899;-73
2022/01/22 00:51:13;;;;;;;12.90;6.90;;;4.10;99.90;;;;;;5069202;28;20483;-73
2022/01/22 00:53:40;;;;;;;9.23;6.70;;;4.10;99.90;;;;;;5060761;28;20859;-73
2022/01/22 00:56:07;;;;;;;7.63;6.83;;;4.10;99.90;;;;;;5061370;28;20505;-73
2022/01/22 00:58:34;;;;;;;9.60;6.97;;;4.10;99.90;;;;;;5071896;28;20520;-73
2022/01/22 01:01:02;;;;;;;14.03;7.00;;;4.10;99.90;;;;;;5071795;28;20513;-73
2022/01/22 01:03:33;;;;;;;12.37;7.87;;;4.10;99.90;;;;;;5069364;28;20451;-73
2022/01/22 01:06:00;;;;;;;10.03;7.60;;;4.10;99.90;;;;;;5072047;28;20555;-73
2022/01/22 01:08:28;;;;;;;9.70;7.30;;;4.10;99.90;;;;;;5055192;28;20867;-73
2022/01/22 01:10:55;;;;;;;11.23;7.27;;;4.10;99.90;;;;;;5071184;28;21013;-73
2022/01/22 01:13:22;;;;;;;8.80;7.00;;;4.10;99.90;;;;;;5070695;28;20878;-73
2022/01/22 01:15:59;;;;;;;10.87;6.90;;;4.00;99.90;;;;;;5072126;28;20516;-73
2022/01/22 01:32:16;;;;;;;6.00;5.07;;;4.00;99.90;;;;;;5057459;28;20631;-72
2022/01/22 01:34:47;;;;;;;4.93;4.40;;;4.00;99.90;;;;;;5068766;28;20455;-72
2022/01/22 01:37:17;;;;;;;6.10;4.40;;;4.00;99.90;;;;;;5057167;28;20518;-72
2022/01/22 01:39:47;;;;;;;5.93;4.23;;;4.00;99.90;;;;;;5051517;28;20472;-71
2022/01/22 01:42:18;;;;;;;6.30;4.23;;;4.00;99.90;;;;;;5051500;28;20483;-72
2022/01/22 01:44:45;;;;;;;4.30;4.00;;;4.00;99.90;;;;;;5051597;28;20497;-72
2022/01/22 01:47:15;;;;;;;4.20;3.90;;;4.00;99.90;;;;;;5070403;28;20451;-72
2022/01/22 01:49:42;;;;;;;4.80;4.37;;;4.00;99.90;;;;;;5065181;28;20490;-70
2022/01/22 01:52:15;;;;;;;3.97;3.67;;;4.00;99.90;;;;;;5051475;28;20452;-71
2022/01/22 01:54:48;;;;;;;4.80;3.60;;;4.00;99.90;;;;;;5064257;28;20448;-70
2022/01/22 01:57:31;;;;;;;8.70;4.63;;;4.00;99.90;;;;;;5070247;28;20456;-70
2022/01/22 02:00:00;;;;;;;5.00;3.97;;;3.90;99.90;;;;;;5069470;28;20499;-70
2022/01/22 02:02:29;;;;;;;4.53;4.20;;;4.00;99.90;;;;;;5067055;28;20456;-70
2022/01/22 02:04:55;;;;;;;4.30;4.00;;;4.00;99.90;;;;;;5051662;28;20456;-71
2022/01/22 02:07:23;;;;;;;4.13;3.43;;;3.90;99.90;;;;;;5051048;28;20452;-71
2022/01/22 02:09:50;;;;;;;3.90;3.60;;;3.90;99.90;;;;;;5050732;28;20506;-71
2022/01/22 02:12:25;;;;;;;3.47;3.23;;;3.90;99.90;;;;;;5050917;28;20506;-71
2022/01/22 02:25:54;;;;;;;4.13;3.73;;;3.90;99.90;;;;;;5070562;28;20458;-71
2022/01/22 02:28:21;;;;;;;3.97;3.67;;;3.90;99.90;;;;;;5059618;28;20559;-71
2022/01/22 02:30:52;;;;;;;4.00;3.53;;;3.90;99.90;;;;;;5066408;28;20479;-71
2022/01/22 02:33:30;;;;;;;6.37;3.60;;;3.90;99.90;;;;;;5058417;28;20958;-71
2022/01/22 02:36:01;;;;;;;3.27;3.07;;;3.80;99.90;;;;;;5065370;28;20461;-71
2022/01/22 02:38:37;;;;;;;3.30;3.00;;;3.90;99.90;;;;;;5063888;28;20476;-71
2022/01/22 02:41:05;;;;;;;4.00;3.53;;;3.80;99.90;;;;;;5050866;28;20543;-71
2022/01/22 02:43:32;;;;;;;4.03;3.50;;;3.80;99.90;;;;;;5050615;28;20484;-71
2022/01/22 02:46:00;;;;;;;3.50;3.30;;;3.80;99.90;;;;;;5069857;28;20828;-71
2022/01/22 02:48:27;;;;;;;3.30;3.10;;;3.80;99.90;;;;;;5068289;28;20475;-71
2022/01/22 02:50:54;;;;;;;3.77;3.47;;;3.80;99.90;;;;;;5051353;28;20485;-71
2022/01/22 02:53:20;;;;;;;4.07;3.33;;;3.80;99.90;;;;;;5050243;28;20948;-71
2022/01/22 02:55:49;;;;;;;4.67;3.60;;;3.80;99.90;;;;;;5051621;28;20493;-71
2022/01/22 02:58:16;;;;;;;3.33;3.03;;;3.80;99.90;;;;;;5068178;28;20475;-71
2022/01/22 03:00:42;;;;;;;3.77;3.13;;;3.80;99.90;;;;;;5069458;28;20448;-71
2022/01/22 03:03:09;;;;;;;4.03;3.83;;;3.80;99.90;;;;;;5068988;28;20451;-71
2022/01/22 03:05:36;;;;;;;3.90;3.60;;;3.80;99.90;;;;;;5070625;28;20439;-71
2022/01/22 03:08:07;;;;;;;3.80;3.53;;;3.80;99.90;;;;;;5050664;28;20456;-71
2022/01/22 03:10:33;;;;;;;3.73;3.43;;;3.80;99.90;;;;;;5050319;28;20499;-71
2022/01/22 03:13:35;;;;;;;3.20;3.00;;;3.80;99.90;;;;;;5061483;28;20538;-71
2022/01/22 03:16:09;;;;;;;3.33;3.13;;;3.80;99.90;;;;;;5069494;28;20473;-71
2022/01/22 03:18:46;;;;;;;3.60;3.30;;;3.80;99.90;;;;;;5054292;28;20503;-71
2022/01/22 03:21:29;;;;;;;3.70;3.40;;;3.80;99.90;;;;;;5070194;28;20474;-70
2022/01/22 03:29:37;;;;;;;4.33;4.03;;;3.80;99.90;;;;;;5063307;28;20971;-73
2022/01/22 03:32:06;;;;;;;4.50;4.10;;;3.80;99.90;;;;;;5068185;28;20467;-72
2022/01/22 03:34:39;;;;;;;4.10;3.80;;;3.80;99.90;;;;;;5069949;28;20447;-71
2022/01/22 03:37:06;;;;;;;3.47;3.27;;;3.80;99.90;;;;;;5069621;28;20451;-71
2022/01/22 03:39:33;;;;;;;3.87;3.53;;;3.80;99.90;;;;;;5059800;28;20530;-71
2022/01/22 03:41:59;;;;;;;3.50;3.30;;;3.80;99.90;;;;;;5069936;28;20497;-71
2022/01/22 03:44:27;;;;;;;4.17;3.87;;;3.90;99.90;;;;;;5053938;28;20448;-70
2022/01/22 03:46:54;;;;;;;5.03;3.53;;;3.90;99.90;;;;;;5053978;28;20803;-70
2022/01/22 03:49:21;;;;;;;4.23;3.83;;;3.90;99.90;;;;;;5052440;28;20488;-71
2022/01/22 03:51:47;;;;;;;3.90;3.60;;;3.90;99.90;;;;;;5053878;28;20488;-71
2022/01/22 03:54:14;;;;;;;4.03;3.77;;;3.90;99.90;;;;;;5054784;28;20498;-71
2022/01/22 03:56:45;;;;;;;3.83;3.63;;;3.90;99.90;;;;;;5073091;28;20481;-73
2022/01/22 03:59:12;;;;;;;4.13;3.83;;;3.90;99.90;;;;;;5070423;28;20481;-71
2022/01/22 04:02:17;;;;;;;4.30;3.90;;;3.90;99.90;;;;;;5073067;28;20455;-71
2022/01/22 04:04:47;;;;;;;3.60;3.33;;;3.90;99.90;;;;;;5059454;28;20463;-71
2022/01/22 04:10:09;;;;;;;4.10;3.80;;;3.90;99.90;;;;;;5052831;28;20550;-71
2022/01/22 04:12:45;;;;;;;3.97;3.67;;;3.90;99.90;;;;;;5053555;28;20504;-71
2022/01/22 04:15:15;;;;;;;4.20;3.90;;;3.90;99.90;;;;;;5069943;28;20504;-70
2022/01/22 04:26:17;;;;;;;4.03;3.73;;;4.10;99.90;;;;;;5072444;28;20470;-70
2022/01/22 04:28:43;;;;;;;3.90;3.60;;;3.70;99.90;;;;;;5071743;28;20470;-71
2022/01/22 04:31:10;;;;;;;5.73;3.90;;;3.70;99.90;;;;;;5068708;28;20540;-71
2022/01/22 04:33:38;;;;;;;3.50;3.30;;;3.70;99.90;;;;;;5070142;28;20605;-71
2022/01/22 04:36:06;;;;;;;3.73;3.50;;;3.70;99.90;;;;;;5052338;28;21018;-71
2022/01/22 04:38:33;;;;;;;6.70;4.07;;;3.70;99.90;;;;;;5052642;28;20522;-71
2022/01/22 04:41:00;;;;;;;3.70;3.40;;;3.70;99.90;;;;;;5052379;28;20790;-71
2022/01/22 04:43:27;;;;;;;4.50;4.07;;;3.70;99.90;;;;;;5052618;28;20593;-71
2022/01/22 04:46:04;;;;;;;4.07;3.77;;;3.70;99.90;;;;;;5052565;28;20463;-70
2022/01/22 04:48:42;;;;;;;4.97;3.90;;;3.80;99.90;;;;;;5051386;28;20829;-70
2022/01/22 04:56:39;;;;;;;3.73;3.43;;;3.80;99.90;;;;;;5051063;28;20814;-71
2022/01/22 04:59:06;;;;;;;4.20;3.80;;;3.80;99.90;;;;;;5052268;28;20468;-71
2022/01/22 05:01:33;;;;;;;4.20;3.90;;;3.80;99.90;;;;;;5052099;28;20936;-71
2022/01/22 05:04:00;;;;;;;3.93;3.63;;;3.80;99.90;;;;;;5051812;28;20609;-71
2022/01/22 05:06:29;;;;;;;4.30;4.00;;;3.80;99.90;;;;;;5065303;28;20452;-71
2022/01/22 05:08:57;;;;;;;3.60;3.40;;;3.90;99.90;;;;;;5071888;28;21005;-71
2022/01/22 05:11:25;;;;;;;8.90;4.10;;;3.90;99.90;;;;;;5059600;28;20511;-71
2022/01/22 05:13:51;;;;;;;4.13;3.73;;;3.80;99.90;;;;;;5062430;28;20479;-71
2022/01/22 05:16:18;;;;;;;3.60;3.40;;;3.90;99.90;;;;;;5071218;28;20505;-71
2022/01/22 05:18:51;;;;;;;4.30;4.00;;;3.90;99.90;;;;;;5065045;28;20477;-71
2022/01/22 05:21:19;;;;;;;4.30;4.00;;;3.90;99.90;;;;;;5051893;28;20457;-71
2022/01/22 05:23:48;;;;;;;4.43;4.10;;;3.90;99.90;;;;;;5051874;28;20988;-71
2022/01/22 05:26:40;;;;;;;4.60;4.20;;;3.90;99.90;;;;;;5066507;28;20459;-72
2022/01/22 05:32:20;;;;;;;4.37;4.07;;;3.90;99.90;;;;;;5044604;28;20829;-73
2022/01/22 05:37:31;;;;;;;4.73;4.30;;;4.00;99.90;;;;;;5062464;28;20438;-71
2022/01/22 05:39:59;;;;;;;4.30;3.90;;;4.00;99.90;;;;;;5065408;28;20541;-71
2022/01/22 05:42:26;;;;;;;5.13;4.67;;;4.00;99.90;;;;;;5063359;28;20465;-71
2022/01/22 05:44:53;;;;;;;4.67;4.27;;;4.00;99.90;;;;;;5050923;28;20865;-71
2022/01/22 05:47:23;;;;;;;5.67;5.10;;;4.00;99.90;;;;;;5051583;28;20456;-71
2022/01/22 05:49:50;;;;;;;5.20;4.80;;;4.00;99.90;;;;;;5065783;28;21072;-71
2022/01/22 05:52:24;;;;;;;5.73;5.23;;;4.00;99.90;;;;;;5053898;28;20484;-71
2022/01/22 05:55:23;;;;;;;4.70;4.30;;;4.00;99.90;;;;;;5051478;28;20456;-71
2022/01/22 06:00:35;;;;;;;5.30;4.80;;;4.00;99.90;;;;;;5050839;28;20826;-71
2022/01/22 06:03:02;;;;;;;5.23;4.73;;;4.10;99.90;;;;;;5051381;28;20498;-72
2022/01/22 06:05:28;;;;;;;5.77;5.20;;;4.10;99.90;;;;;;5063774;28;20452;-71
2022/01/22 06:07:55;;;;;;;4.77;4.40;;;4.10;99.90;;;;;;5053483;28;20791;-71
2022/01/22 06:10:27;;;;;;;5.00;4.60;;;4.10;99.90;;;;;;5057511;28;20872;-71
2022/01/22 06:13:11;;;;;;;4.90;4.50;;;4.10;99.90;;;;;;5071148;28;20451;-70
2022/01/22 06:15:38;;;;;;;5.73;5.00;;;4.10;99.90;;;;;;5070280;28;20850;-70
2022/01/22 06:18:05;;;;;;;6.07;4.47;;;4.10;99.90;;;;;;5071041;28;20530;-70
2022/01/22 06:20:32;;;;;;;5.20;4.70;;;4.10;99.90;;;;;;5065323;28;20460;-70
2022/01/22 06:22:58;;;;;;;5.47;4.97;;;4.10;99.90;;;;;;5050649;28;20460;-70
2022/01/22 06:25:25;;;;;;;5.37;4.87;;;4.10;99.90;;;;;;5050825;28;20457;-71
2022/01/22 06:27:52;;;;;;;5.80;5.27;;;4.10;99.90;;;;;;5050753;28;20456;-72
2022/01/22 06:30:20;;;;;;;5.77;5.17;;;4.10;99.90;;;;;;5060678;28;20483;-71
2022/01/22 06:32:47;;;;;;;5.67;5.10;;;4.10;99.90;;;;;;5056515;28;20519;-72
2022/01/22 06:35:14;;;;;;;5.30;4.80;;;4.40;99.90;;;;;;5059002;28;20457;-72
2022/01/22 06:37:40;;;;;;;5.63;5.10;;;4.10;99.90;;;;;;5050668;28;20456;-72
2022/01/22 06:42:53;;;;;;;7.00;5.67;;;4.00;99.90;;;;;;5069527;28;21073;-72
2022/01/22 06:45:21;;;;;;;8.17;6.03;;;4.00;99.90;;;;;;5066642;28;21010;-73
2022/01/22 06:47:48;;;;;;;5.93;5.33;;;4.00;99.90;;;;;;5066043;28;20451;-72
2022/01/22 06:50:15;;;;;;;5.90;5.07;;;4.00;99.90;;;;;;5053895;28;20476;-72
2022/01/22 06:52:41;;;;;;;6.27;5.50;;;4.00;99.90;;;;;;5051568;28;20599;-71
2022/01/22 06:55:11;;;;;;;6.70;5.13;;;4.00;99.90;;;;;;5050701;28;20875;-72
2022/01/22 06:57:38;;;;;;;5.47;4.97;;;4.00;99.90;;;;;;5055828;28;20451;-71
2022/01/22 07:00:06;;;;;;;6.03;5.43;;;4.00;99.90;;;;;;5065849;28;21049;-71
2022/01/22 07:02:34;;;;;;;5.57;5.03;;;4.10;99.90;;;;;;5055164;28;20455;-71
2022/01/22 07:05:01;;;;;;;6.90;5.80;;;4.00;99.90;;;;;;5070027;28;20800;-72
2022/01/22 07:07:27;;;;;;;6.17;5.60;;;4.10;99.90;;;;;;5070181;28;20909;-71
2022/01/22 07:09:54;;;;;;;7.03;5.87;;;4.10;99.90;;;;;;5069881;28;20463;-71
2022/01/22 07:12:21;;;;;;;6.80;5.70;;;4.10;99.90;;;;;;5062346;28;20479;-71
2022/01/22 07:14:49;;;;;;;6.87;6.17;;;4.10;99.90;;;;;;5068793;28;20477;-70
2022/01/22 07:17:16;;;;;;;6.10;5.47;;;4.10;99.90;;;;;;5065301;28;20455;-71
2022/01/22 07:19:44;;;;;;;6.40;5.80;;;4.10;99.90;;;;;;5053436;28;21039;-71
2022/01/22 07:22:31;;;;;;;7.80;6.23;;;4.10;99.90;;;;;;5054102;28;20535;-71
2022/01/22 07:24:58;;;;;;;6.50;5.90;;;4.10;99.90;;;;;;5053916;28;20964;-71
2022/01/22 07:27:24;;;;;;;6.40;5.70;;;4.20;99.90;;;;;;5053970;28;20850;-72
2022/01/22 07:29:51;;;;;;;8.20;6.13;;;4.20;99.90;;;;;;5069959;28;20604;-72
2022/01/22 07:32:27;;;;;;;12.50;6.60;;;4.20;99.90;;;;;;5057971;28;20483;-74
2022/01/22 07:34:55;;;;;;;7.73;5.70;;;4.20;99.90;;;;;;5058196;28;20543;-74
2022/01/22 07:37:22;;;;;;;8.17;6.40;;;4.20;99.90;;;;;;5053026;28;20455;-74
2022/01/22 07:39:49;;;;;;;7.23;6.10;;;4.20;99.90;;;;;;5053132;28;20472;-74
2022/01/22 07:42:15;;;;;;;6.47;5.87;;;4.30;99.90;;;;;;5063649;28;20455;-74
2022/01/22 07:44:42;;;;;;;7.37;6.40;;;4.30;99.90;;;;;;5070725;28;20448;-74
2022/01/22 07:47:09;;;;;;;14.17;6.67;;;4.30;99.90;;;;;;5053074;28;20494;-74
2022/01/22 07:49:36;;;;;;;9.17;7.10;;;4.30;99.90;;;;;;5072818;22;21309;-67
2022/01/22 07:52:04;;;;;;;8.63;6.80;;;4.30;99.90;;;;;;5052059;28;21011;-68
2022/01/22 07:54:32;;;;;;;8.63;7.30;;;4.30;99.90;;;;;;5053150;28;20491;-67
2022/01/22 07:56:59;;;;;;;7.83;7.03;;;4.30;99.90;;;;;;5051258;28;20474;-67
2022/01/22 07:59:26;;;;;;;8.03;6.70;;;4.30;99.90;;;;;;5049735;28;20526;-67
2022/01/22 08:01:52;;;;;;;8.33;7.40;;;4.30;99.90;;;;;;5033152;28;20457;-67
2022/01/22 08:04:23;;;;;;;8.27;7.03;;;4.30;99.90;;;;;;5033746;28;20475;-68
2022/01/22 08:06:50;;;;;;;7.83;6.83;;;4.40;99.90;;;;;;5040484;28;20463;-66
2022/01/22 08:09:18;;;;;;;7.83;6.40;;;4.40;99.90;;;;;;5034434;28;20527;-66
2022/01/22 08:11:44;;;;;;;10.73;7.43;;;4.50;99.90;;;;;;5032753;28;20480;-67
2022/01/22 08:14:11;;;;;;;10.17;8.00;;;4.50;99.90;;;;;;5050837;28;20448;-67
2022/01/22 08:16:38;;;;;;;11.90;6.90;;;4.50;99.90;;;;;;5049173;28;20457;-67
2022/01/22 08:19:05;;;;;;;9.10;7.90;;;4.60;99.90;;;;;;5031396;28;21035;-67
2022/01/22 08:21:32;;;;;;;12.10;7.37;;;4.60;99.90;;;;;;5035398;28;20998;-67
2022/01/22 08:23:59;;;;;;;8.73;7.10;;;4.60;99.90;;;;;;5048998;28;20456;-67
2022/01/22 08:26:31;;;;;;;8.00;6.67;;;4.70;99.90;;;;;;5034198;28;20454;-67
2022/01/22 08:28:59;;;;;;;8.00;7.20;;;4.70;99.90;;;;;;5048370;28;20824;-68
2022/01/22 08:31:40;;;;;;;10.63;7.77;;;4.70;99.90;;;;;;5032719;28;20864;-68
2022/01/22 08:39:37;;;;;;;9.00;7.77;;;4.70;99.90;;;;;;5043892;28;20469;-67
2022/01/22 08:42:06;;;;;;;10.53;7.30;;;4.70;99.90;;;;;;5052304;28;20475;-67
2022/01/22 08:44:33;;;;;;;10.57;7.90;;;4.70;99.90;;;;;;5038504;28;20442;-67
2022/01/22 08:47:00;;;;;;;9.70;8.03;;;4.70;99.90;;;;;;5032714;28;20939;-67
2022/01/22 08:49:27;;;;;;;11.10;8.10;;;4.70;99.90;;;;;;5031428;28;20777;-67
2022/01/22 08:51:54;;;;;;;9.07;7.70;;;4.70;99.90;;;;;;5032373;28;20534;-67
2022/01/22 08:54:21;;;;;;;13.60;8.63;;;4.70;99.90;;;;;;5042547;28;20497;-67
2022/01/22 08:56:48;;;;;;;12.03;8.10;;;4.80;99.90;;;;;;5051578;28;20948;-67
2022/01/22 08:59:16;;;;;;;11.63;8.70;;;4.80;99.90;;;;;;5043647;28;20870;-66
2022/01/22 09:01:45;;;;;;;13.60;9.10;;;4.80;99.90;;;;;;5047396;28;20503;-66
2022/01/22 09:04:12;;;;;;;10.43;8.20;;;4.80;99.90;;;;;;5032431;28;20559;-66
2022/01/22 09:06:39;;;;;;;11.07;7.93;;;4.80;99.90;;;;;;5041199;28;20960;-66
2022/01/22 09:09:10;;;;;;;13.10;8.97;;;4.90;99.90;;;;;;5032383;28;20528;-66
2022/01/22 09:11:37;;;;;;;12.73;8.50;;;4.90;99.90;;;;;;5044443;28;20548;-67
2022/01/22 09:14:05;;;;;;;11.43;8.30;;;4.90;99.90;;;;;;5052010;28;20956;-66
2022/01/22 09:16:34;;;;;;;12.77;9.30;;;4.90;99.90;;;;;;5050908;28;20472;-67
2022/01/22 09:19:06;;;;;;;10.30;7.93;;;5.00;99.90;;;;;;5052084;28;20472;-66
2022/01/22 09:21:33;;;;;;;9.07;7.50;;;5.00;99.90;;;;;;5039808;28;20878;-66
2022/01/22 09:24:00;;;;;;;12.50;8.10;;;5.10;99.90;;;;;;5042824;28;20544;-67
2022/01/22 09:26:29;;;;;;;10.30;8.10;;;5.10;99.90;;;;;;5048169;28;20457;-66
2022/01/22 09:28:57;;;;;;;9.87;7.20;;;5.20;99.90;;;;;;5031292;28;20449;-66
2022/01/22 09:31:24;;;;;;;12.47;8.53;;;5.30;99.90;;;;;;5031906;28;20485;-66
2022/01/22 09:33:55;;;;;;;9.67;7.37;;;5.40;99.90;;;;;;5045182;28;20448;-66
2022/01/22 09:36:22;;;;;;;9.90;7.67;;;5.40;99.90;;;;;;5045679;28;21213;-66
2022/01/22 09:38:49;;;;;;;12.63;9.00;;;5.40;99.90;;;;;;5031778;28;20527;-66
2022/01/22 09:41:15;;;;;;;12.20;8.40;;;5.40;99.90;;;;;;5032005;28;20951;-67
2022/01/22 09:43:42;;;;;;;11.90;8.43;;;5.50;99.90;;;;;;5039028;28;21255;-67
2022/01/22 09:46:10;;;;;;;12.17;9.00;;;5.50;99.90;;;;;;5031986;28;21117;-66
2022/01/22 09:48:41;;;;;;;11.47;8.00;;;5.50;99.90;;;;;;5036080;28;20518;-66
2022/01/22 09:51:10;;;;;;;11.67;8.70;;;5.60;99.90;;;;;;5051389;28;20543;-67
2022/01/22 09:53:37;;;;;;;11.13;7.87;;;5.60;99.90;;;;;;5050928;28;20480;-67
2022/01/22 09:56:04;;;;;;;10.83;8.10;;;5.60;99.90;;;;;;5051642;28;20449;-67
2022/01/22 09:58:31;;;;;;;11.60;8.70;;;5.60;99.90;;;;;;5048828;28;20445;-66
2022/01/22 10:01:19;;;;;;;11.30;8.30;;;5.60;99.90;;;;;;5035904;28;20556;-68
2022/01/22 10:03:47;;;;;;;12.90;9.40;;;5.60;99.90;;;;;;5043849;28;20975;-68
2022/01/22 10:06:16;;;;;;;13.30;7.90;;;5.60;99.90;;;;;;5029089;28;20461;-68
2022/01/22 10:08:44;;;;;;;13.50;8.90;;;5.60;99.90;;;;;;5030509;28;20968;-67
2022/01/22 10:11:18;;;;;;;14.23;8.93;;;5.70;99.90;;;;;;5031172;28;20945;-67
2022/01/22 10:13:46;;;;;;;12.70;9.10;;;5.70;99.90;;;;;;5030429;28;20492;-68
2022/01/22 10:16:24;;;;;;;13.93;8.60;;;5.70;99.90;;;;;;5031357;28;20484;-68
2022/01/22 10:19:10;;;;;;;12.20;8.33;;;5.70;99.90;;;;;;5031171;28;20972;-68
2022/01/22 10:21:40;;;;;;;15.67;9.20;;;5.70;99.90;;;;;;5031260;28;20449;-68
2022/01/22 10:24:38;;;;;;;13.20;8.77;;;5.70;99.90;;;;;;5031460;28;20445;-68
2022/01/22 10:27:32;;;;;;;12.10;8.70;;;5.60;99.90;;;;;;5044502;28;20448;-69
2022/01/22 10:30:03;;;;;;;11.90;8.60;;;5.70;99.90;;;;;;5019594;28;21061;-70
2022/01/22 10:32:41;;;;;;;13.13;8.10;;;5.70;99.90;;;;;;5023404;28;20488;-70
2022/01/22 10:35:10;;;;;;;11.03;8.03;;;5.70;99.90;;;;;;5033351;28;20496;-69
2022/01/22 10:37:38;;;;;;;12.53;8.53;;;5.70;99.90;;;;;;5030890;28;20449;-69
2022/01/22 10:40:23;;;;;;;12.03;7.83;;;5.80;99.90;;;;;;5030716;28;20461;-70
2022/01/22 10:42:50;;;;;;;10.10;6.80;;;5.80;99.90;;;;;;5031298;28;20449;-70
2022/01/22 10:45:25;;;;;;;9.20;7.10;;;5.80;99.90;;;;;;5030316;28;20825;-70
2022/01/22 10:48:16;;;;;;;8.97;7.03;;;5.80;99.90;;;;;;5031120;28;20453;-70
2022/01/22 10:50:43;;;;;;;8.20;6.50;;;5.80;99.90;;;;;;5030600;28;20568;-69
2022/01/22 10:53:11;;;;;;;7.77;5.93;;;5.80;99.90;;;;;;5031097;28;20543;-69
2022/01/22 10:56:02;;;;;;;8.50;6.97;;;5.80;99.90;;;;;;5032143;28;20457;-69
2022/01/22 10:58:29;;;;;;;8.77;6.67;;;5.70;99.90;;;;;;5044109;28;20897;-69
2022/01/22 11:01:00;;;;;;;8.73;6.20;;;5.70;99.90;;;;;;5031268;28;21273;-69
2022/01/22 11:03:28;;;;;;;7.97;6.23;;;5.70;99.90;;;;;;5033070;28;20455;-70
2022/01/22 11:05:56;;;;;;;8.57;6.40;;;5.70;99.90;;;;;;5044732;28;20547;-69
2022/01/22 11:08:24;;;;;;;8.23;6.10;;;5.70;99.90;;;;;;5033095;28;20507;-69
2022/01/22 11:10:51;;;;;;;8.23;6.37;;;5.70;99.90;;;;;;5036338;28;20556;-69
2022/01/22 11:13:19;;;;;;;7.27;5.93;;;5.70;99.90;;;;;;5044773;28;20479;-69
2022/01/22 11:15:46;;;;;;;7.37;6.27;;;5.70;99.90;;;;;;5049009;28;21018;-68
2022/01/22 11:18:13;;;;;;;7.37;6.23;;;5.80;99.90;;;;;;5042508;28;20850;-68
2022/01/22 11:20:40;;;;;;;6.17;5.57;;;5.80;99.90;;;;;;5031584;28;20480;-68
2022/01/22 11:23:08;;;;;;;8.40;5.90;;;5.80;99.90;;;;;;5031206;28;20935;-69
2022/01/22 11:25:36;;;;;;;7.37;6.30;;;5.90;99.90;;;;;;5038146;28;20940;-69
2022/01/22 11:28:03;;;;;;;8.97;6.37;;;5.90;99.90;;;;;;5034238;28;20453;-68
2022/01/22 11:30:32;;;;;;;6.40;5.80;;;5.90;99.90;;;;;;5030277;28;20547;-68
2022/01/22 11:33:05;;;;;;;7.40;6.00;;;5.80;99.90;;;;;;5030507;28;20489;-68
2022/01/22 11:35:40;;;;;;;7.10;6.00;;;5.80;99.90;;;;;;5029960;28;20454;-69
2022/01/22 11:38:10;;;;;;;8.80;6.77;;;5.80;99.90;;;;;;5030129;28;20506;-69
2022/01/22 11:40:38;;;;;;;7.20;5.63;;;5.80;99.90;;;;;;5029798;28;20469;-70
2022/01/22 11:43:08;;;;;;;9.70;6.43;;;5.70;99.90;;;;;;5030253;28;20441;-69
2022/01/22 11:45:38;;;;;;;7.80;6.30;;;5.70;99.90;;;;;;5030095;28;20558;-69
2022/01/22 11:48:13;;;;;;;7.47;6.07;;;5.70;99.90;;;;;;5030330;28;20514;-69
2022/01/22 11:50:41;;;;;;;9.73;6.43;;;5.70;99.90;;;;;;5042226;28;20476;-69
2022/01/22 11:53:25;;;;;;;7.77;6.40;;;5.70;99.90;;;;;;5050720;28;20488;-69
2022/01/22 11:56:19;;;;;;;7.80;5.97;;;5.70;99.90;;;;;;5049884;28;20510;-70
2022/01/22 11:59:23;;;;;;;11.10;6.73;;;5.80;99.90;;;;;;5040077;28;21215;-70
2022/01/22 12:01:59;;;;;;;8.60;6.68;;;5.70;99.90;;;;;;5045434;28;20792;-70
2022/01/22 12:04:28;;;;;;;6.53;5.70;;;5.80;99.90;;;;;;5047551;28;20186;-70
2022/01/22 12:07:15;;;;;;;7.13;5.50;;;5.80;99.90;;;;;;5042092;28;20517;-70
2022/01/22 12:09:52;;;;;;;8.37;6.27;;;5.70;99.90;;;;;;5014057;28;20470;-69
2022/01/22 12:15:12;;;;;;;6.43;5.73;;;5.70;99.90;;;;;;5033876;28;20428;-69
2022/01/22 12:18:06;;;;;;;7.17;5.50;;;5.80;99.90;;;;;;5034331;28;20453;-69
2022/01/22 12:23:52;;;;;;;7.93;6.00;;;5.80;99.90;;;;;;5039717;28;20444;-69
2022/01/22 12:26:48;;;;;;;6.23;5.63;;;5.70;99.90;;;;;;5036678;28;20484;-69
2022/01/22 12:29:37;;;;;;;8.50;6.23;;;5.70;99.90;;;;;;5043644;28;20469;-69
2022/01/22 12:32:22;;;;;;;9.57;6.70;;;5.70;99.90;;;;;;5042880;28;20973;-69
2022/01/22 12:34:54;;;;;;;8.70;6.30;;;5.80;99.90;;;;;;5047526;28;20967;-69
2022/01/22 12:37:22;;;;;;;8.37;6.40;;;5.80;99.90;;;;;;5017662;28;20940;-70
2022/01/22 12:39:52;;;;;;;10.50;7.80;;;5.80;99.90;;;;;;5046246;28;20469;-68
2022/01/22 12:42:26;;;;;;;8.50;6.70;;;5.80;99.90;;;;;;5039932;28;20963;-68
2022/01/22 12:44:59;;;;;;;8.97;6.67;;;5.80;99.90;;;;;;5052783;28;20448;-68
2022/01/22 12:47:27;;;;;;;7.33;6.03;;;5.80;99.90;;;;;;5049661;28;20960;-68
2022/01/22 12:50:00;;;;;;;8.70;6.40;;;5.80;99.90;;;;;;5049248;28;20526;-69
2022/01/22 12:52:27;;;;;;;8.27;6.37;;;5.80;99.90;;;;;;5032038;28;20446;-68
2022/01/22 12:54:57;;;;;;;9.30;6.40;;;5.80;99.90;;;;;;5033012;28;20449;-69
2022/01/22 12:57:25;;;;;;;11.37;7.03;;;5.80;99.90;;;;;;5033964;28;20454;-69
2022/01/22 12:59:53;;;;;;;10.97;7.07;;;5.80;99.90;;;;;;5036535;28;20475;-69
2022/01/22 13:02:35;;;;;;;8.33;6.40;;;5.80;99.90;;;;;;5041888;28;20823;-69
2022/01/22 13:05:02;;;;;;;10.63;6.80;;;5.80;99.90;;;;;;5023627;28;20507;-69
2022/01/22 13:07:29;;;;;;;12.40;6.80;;;5.80;99.90;;;;;;5032942;28;20465;-69
2022/01/22 13:09:57;;;;;;;8.30;6.33;;;5.90;99.90;;;;;;5032626;28;20499;-69
2022/01/22 13:12:25;;;;;;;8.97;6.50;;;6.00;99.90;;;;;;5031926;28;20466;-69
2022/01/22 13:14:56;;;;;;;11.93;7.07;;;6.00;99.90;;;;;;5034231;28;20492;-69
2022/01/22 13:17:31;;;;;;;9.00;6.90;;;6.10;99.90;;;;;;5042491;28;21015;-69
2022/01/22 13:19:58;;;;;;;13.33;5.97;;;6.10;99.90;;;;;;5051222;28;20891;-69
2022/01/22 13:22:32;;;;;;;9.63;6.33;;;6.10;99.90;;;;;;5051437;28;20799;-69
2022/01/22 13:25:05;;;;;;;8.77;6.40;;;6.20;99.90;;;;;;5052257;28;20503;-69
2022/01/22 13:27:32;;;;;;;8.80;6.47;;;6.10;99.90;;;;;;5051126;28;20456;-68
2022/01/22 13:29:59;;;;;;;9.00;6.80;;;6.10;99.90;;;;;;5036933;28;20565;-69
2022/01/22 13:32:40;;;;;;;9.88;6.95;;;6.20;99.90;;;;;;5045683;28;20453;-68
2022/01/22 13:35:20;;;;;;;8.63;6.30;;;6.50;99.90;;;;;;5032170;28;20568;-69
2022/01/22 13:49:17;;;;;;;11.90;7.10;;;6.50;99.90;;;;;;5140325;22;20497;-74
2022/01/22 13:51:45;;;;;;;8.90;6.00;;;6.40;99.90;;;;;;5068267;28;20487;-74
2022/01/22 13:54:13;;;;;;;10.37;6.53;;;6.30;99.90;;;;;;5067694;28;20518;-74
2022/01/22 13:56:49;;;;;;;7.70;6.20;;;6.30;99.90;;;;;;5057405;28;21006;-75
2022/01/22 13:59:17;;;;;;;13.43;7.20;;;6.30;99.90;;;;;;5060413;28;20475;-74
2022/01/22 14:01:51;;;;;;;8.77;6.50;;;6.30;99.90;;;;;;5053572;28;20952;-75
2022/01/22 14:04:19;;;;;;;6.10;5.40;;;6.30;99.90;;;;;;5030079;28;20457;-75
2022/01/22 14:06:47;;;;;;;6.70;5.43;;;6.30;99.90;;;;;;5047610;28;20459;-75
2022/01/22 14:09:15;;;;;;;9.53;6.10;;;6.30;99.90;;;;;;5055819;28;20444;-74
2022/01/22 14:12:11;;;;;;;10.83;6.83;;;6.30;99.90;;;;;;5062462;28;20455;-75
2022/01/22 14:14:59;;;;;;;8.83;6.10;;;6.30;99.90;;;;;;5042949;28;20452;-74
2022/01/22 14:17:31;;;;;;;7.90;5.47;;;6.30;99.90;;;;;;5046844;28;21028;-75
2022/01/22 14:20:03;;;;;;;6.87;5.50;;;6.30;99.90;;;;;;5047405;28;20500;-72
2022/01/22 14:22:50;;;;;;;5.80;5.10;;;6.30;99.90;;;;;;5047917;28;20480;-71
2022/01/22 14:25:18;;;;;;;6.60;5.30;;;6.30;99.90;;;;;;5055569;28;20478;-72
2022/01/22 14:27:57;;;;;;;7.97;5.37;;;6.40;99.90;;;;;;5046421;28;20507;-71
2022/01/22 14:30:41;;;;;;;7.63;5.47;;;6.40;99.90;;;;;;5044598;28;20599;-72
2022/01/22 14:33:09;;;;;;;9.10;5.37;;;6.40;99.90;;;;;;5043349;28;20511;-72